createdAt,value
2023-03-14T00:00:16.492Z,3.30
2023-03-14T00:02:43.792Z,3.30
2023-03-14T00:05:11.490Z,3.20
2023-03-14T00:07:40.530Z,3.30
2023-03-14T00:10:12.341Z,3.30
2023-03-14T00:12:39.875Z,3.30
2023-03-14T00:15:08.244Z,3.20
2023-03-14T00:17:36.511Z,3.30
2023-03-14T00:20:06.705Z,3.30
2023-03-14T00:22:33.934Z,3.30
2023-03-14T00:25:01.042Z,3.30
2023-03-14T00:27:28.685Z,3.30
2023-03-14T00:29:55.800Z,3.20
2023-03-14T00:32:23.057Z,3.20
2023-03-14T00:34:50.250Z,3.20
2023-03-14T00:37:17.374Z,3.20
2023-03-14T00:39:44.498Z,3.20
2023-03-14T00:42:11.881Z,3.10
2023-03-14T00:44:39.107Z,3.10
2023-03-14T00:47:06.423Z,3.10
2023-03-14T00:49:33.613Z,3.10
2023-03-14T00:52:00.809Z,3.20
2023-03-14T00:54:28.034Z,3.50
2023-03-14T00:56:55.217Z,3.80
2023-03-14T00:59:23.292Z,3.90
2023-03-14T01:01:50.461Z,3.90
2023-03-14T01:04:17.611Z,3.70
2023-03-14T01:06:44.767Z,3.70
2023-03-14T01:09:11.965Z,3.60
2023-03-14T01:11:39.100Z,3.60
2023-03-14T01:14:06.740Z,3.70
2023-03-14T01:16:35.747Z,3.70
2023-03-14T01:19:04.014Z,3.80
2023-03-14T01:21:33.279Z,3.90
2023-03-14T01:24:02.161Z,3.90
2023-03-14T01:26:32.634Z,4.10
2023-03-14T01:29:00.279Z,4.10
2023-03-14T01:31:28.566Z,4.30
2023-03-14T01:33:55.761Z,4.60
2023-03-14T01:36:22.913Z,5.10
2023-03-14T01:38:50.262Z,5.60
2023-03-14T01:41:21.680Z,5.80
2023-03-14T01:43:50.185Z,6.00
2023-03-14T01:46:41.184Z,6.10
2023-03-14T01:49:18.948Z,6.40
2023-03-14T01:52:03.097Z,6.50
2023-03-14T01:54:30.225Z,6.60
2023-03-14T01:57:03.280Z,6.70
2023-03-14T01:59:33.264Z,6.80
2023-03-14T02:02:01.455Z,6.70
2023-03-14T02:04:34.224Z,6.70
2023-03-14T02:07:18.927Z,6.70
2023-03-14T02:09:46.621Z,6.60
2023-03-14T02:12:17.290Z,6.60
2023-03-14T02:14:49.095Z,6.70
2023-03-14T02:17:19.292Z,6.70
2023-03-14T02:19:49.230Z,6.80
2023-03-14T02:22:17.597Z,6.80
2023-03-14T02:25:13.522Z,6.80
2023-03-14T02:27:40.740Z,6.90
2023-03-14T02:30:14.377Z,6.90
2023-03-14T02:32:45.250Z,7.00
2023-03-14T02:35:15.746Z,7.10
2023-03-14T02:37:58.050Z,7.30
2023-03-14T02:40:25.183Z,7.40
2023-03-14T02:42:52.310Z,7.40
2023-03-14T02:45:19.368Z,7.50
2023-03-14T02:47:52.741Z,7.70
2023-03-14T02:50:24.108Z,7.90
2023-03-14T02:52:51.191Z,8.10
2023-03-14T02:55:22.715Z,8.30
2023-03-14T02:57:49.844Z,8.30
2023-03-14T03:00:17.468Z,8.30
2023-03-14T03:02:44.594Z,8.30
2023-03-14T03:05:11.716Z,8.30
2023-03-14T03:07:38.938Z,8.30
2023-03-14T03:10:06.804Z,8.10
2023-03-14T03:12:34.013Z,8.00
2023-03-14T03:15:01.142Z,7.90
2023-03-14T03:17:28.246Z,7.90
2023-03-14T03:19:55.325Z,7.90
2023-03-14T03:22:22.511Z,7.80
2023-03-14T03:24:50.521Z,7.90
2023-03-14T03:27:17.705Z,7.70
2023-03-14T03:29:44.896Z,7.60
2023-03-14T03:32:12.087Z,7.40
2023-03-14T03:34:39.216Z,7.20
2023-03-14T03:37:06.310Z,6.90
2023-03-14T03:39:33.552Z,6.80
2023-03-14T03:42:00.692Z,6.70
2023-03-14T03:44:27.897Z,6.70
2023-03-14T03:46:55.068Z,6.70
2023-03-14T03:49:22.187Z,6.80
2023-03-14T03:51:49.450Z,6.90
2023-03-14T03:54:16.590Z,6.90
2023-03-14T03:56:43.767Z,6.90
2023-03-14T03:59:10.965Z,7.00
2023-03-14T04:01:38.070Z,7.20
2023-03-14T04:04:05.403Z,7.30
2023-03-14T04:06:32.744Z,7.40
2023-03-14T04:09:00.473Z,7.50
2023-03-14T04:11:27.665Z,7.50
2023-03-14T04:13:54.744Z,7.50
2023-03-14T04:16:24.800Z,7.60
2023-03-14T04:18:52.428Z,7.70
2023-03-14T04:21:20.225Z,7.70
2023-03-14T04:23:47.386Z,7.70
2023-03-14T04:26:14.545Z,7.70
2023-03-14T04:28:41.676Z,7.70
2023-03-14T04:31:17.488Z,7.70
2023-03-14T04:33:46.054Z,7.70
2023-03-14T04:36:14.240Z,7.70
2023-03-14T04:38:41.694Z,7.70
2023-03-14T04:41:08.776Z,7.90
2023-03-14T04:43:35.967Z,7.90
2023-03-14T04:46:03.172Z,8.00
2023-03-14T04:48:30.323Z,8.00
2023-03-14T04:50:57.669Z,8.40
2023-03-14T04:53:24.919Z,8.70
2023-03-14T04:55:56.565Z,9.30
2023-03-14T04:58:25.077Z,9.70
2023-03-14T05:00:52.802Z,10.10
2023-03-14T05:03:20.329Z,10.40
2023-03-14T05:05:48.123Z,10.50
2023-03-14T05:08:15.504Z,10.40
2023-03-14T05:10:42.600Z,10.40
2023-03-14T05:13:09.677Z,10.30
2023-03-14T05:15:36.953Z,10.30
2023-03-14T05:18:04.112Z,10.40
2023-03-14T05:20:32.241Z,10.40
2023-03-14T05:22:59.354Z,10.30
2023-03-14T05:25:26.548Z,10.40
2023-03-14T05:27:56.236Z,10.30
2023-03-14T05:30:24.116Z,10.20
2023-03-14T05:32:51.302Z,10.10
2023-03-14T05:35:18.631Z,10.00
2023-03-14T05:37:45.793Z,9.90
2023-03-14T05:40:13.224Z,9.80
2023-03-14T05:42:40.352Z,9.70
2023-03-14T05:45:08.033Z,9.60
2023-03-14T05:47:35.173Z,9.60
2023-03-14T05:50:02.424Z,9.50
2023-03-14T05:52:29.557Z,9.40
2023-03-14T05:54:56.645Z,9.40
2023-03-14T05:57:23.777Z,9.30
2023-03-14T05:59:50.885Z,9.30
2023-03-14T06:02:18.075Z,9.20
2023-03-14T06:04:45.291Z,9.20
2023-03-14T06:07:12.414Z,9.30
2023-03-14T06:09:40.899Z,9.20
2023-03-14T06:12:08.235Z,9.20
2023-03-14T06:14:35.394Z,9.20
2023-03-14T06:17:02.580Z,9.20
2023-03-14T06:19:29.822Z,9.30
2023-03-14T06:21:57.064Z,9.30
2023-03-14T06:24:24.232Z,9.30
2023-03-14T06:26:51.370Z,9.30
2023-03-14T06:29:18.572Z,9.20
2023-03-14T06:31:45.811Z,9.30
2023-03-14T06:34:13.040Z,9.20
2023-03-14T06:36:40.168Z,9.20
2023-03-14T06:39:07.460Z,9.30
2023-03-14T06:41:34.686Z,9.20
2023-03-14T06:44:01.833Z,9.20
2023-03-14T06:46:29.175Z,9.20
2023-03-14T06:48:56.591Z,9.20
2023-03-14T06:51:24.005Z,9.20
2023-03-14T06:53:51.192Z,9.30
2023-03-14T06:56:18.380Z,9.30
2023-03-14T06:58:47.694Z,9.30
2023-03-14T07:01:24.432Z,9.30
2023-03-14T07:03:51.866Z,9.30
2023-03-14T07:06:19.099Z,9.40
2023-03-14T07:08:46.497Z,9.40
2023-03-14T07:11:13.620Z,9.50
2023-03-14T07:13:41.242Z,9.60
2023-03-14T07:16:09.749Z,9.60
2023-03-14T07:18:37.520Z,9.70
2023-03-14T07:21:05.408Z,9.70
2023-03-14T07:23:32.586Z,9.70
2023-03-14T07:25:59.741Z,9.70
2023-03-14T07:28:28.383Z,9.80
2023-03-14T07:30:56.412Z,10.00
2023-03-14T07:33:23.689Z,10.00
2023-03-14T07:35:51.721Z,10.10
2023-03-14T07:38:21.624Z,10.10
2023-03-14T07:40:50.039Z,10.10
2023-03-14T07:43:17.292Z,10.10
2023-03-14T07:45:50.784Z,10.10
2023-03-14T07:48:18.609Z,10.20
2023-03-14T07:50:49.226Z,10.20
2023-03-14T07:53:16.409Z,10.30
2023-03-14T07:55:43.674Z,10.30
2023-03-14T07:58:10.893Z,10.30
2023-03-14T08:00:38.135Z,10.30
2023-03-14T08:03:05.328Z,10.30
2023-03-14T08:05:35.022Z,10.20
2023-03-14T08:08:02.229Z,10.10
2023-03-14T08:10:29.556Z,10.00
2023-03-14T08:12:58.548Z,9.90
2023-03-14T08:15:26.321Z,9.90
2023-03-14T08:17:55.152Z,9.90
2023-03-14T08:20:24.123Z,9.90
2023-03-14T08:22:51.238Z,9.90
2023-03-14T08:25:18.810Z,9.90
2023-03-14T08:27:45.944Z,9.90
2023-03-14T08:30:15.409Z,9.90
2023-03-14T08:32:42.860Z,9.80
2023-03-14T08:35:10.920Z,9.80
2023-03-14T08:37:38.292Z,9.70
2023-03-14T08:40:11.128Z,9.70
2023-03-14T08:42:39.504Z,9.60
2023-03-14T08:45:08.307Z,9.60
2023-03-14T08:47:35.481Z,9.60
2023-03-14T08:50:02.602Z,9.60
2023-03-14T08:52:29.798Z,9.60
2023-03-14T08:54:56.886Z,9.50
2023-03-14T08:57:28.669Z,9.40
2023-03-14T08:59:56.999Z,9.40
2023-03-14T09:02:25.578Z,9.20
2023-03-14T09:04:53.842Z,9.10
2023-03-14T09:07:21.175Z,9.10
2023-03-14T09:09:48.447Z,9.10
2023-03-14T09:12:15.537Z,9.00
2023-03-14T09:14:42.770Z,9.00
2023-03-14T09:17:09.892Z,8.90
2023-03-14T09:19:37.226Z,9.00
2023-03-14T09:22:04.636Z,8.90
2023-03-14T09:24:31.877Z,8.90
2023-03-14T09:26:59.055Z,8.80
2023-03-14T09:29:26.312Z,8.80
2023-03-14T09:31:53.828Z,8.80
2023-03-14T09:34:21.032Z,8.80
2023-03-14T09:36:48.136Z,8.80
2023-03-14T09:39:15.324Z,8.80
2023-03-14T09:41:45.663Z,8.80
2023-03-14T09:44:28.446Z,8.70
2023-03-14T09:47:06.156Z,8.80
2023-03-14T09:49:36.140Z,8.70
2023-03-14T09:52:12.594Z,8.80
2023-03-14T09:55:08.827Z,8.70
2023-03-14T09:57:37.650Z,8.70
2023-03-14T10:00:15.561Z,8.50
2023-03-14T10:02:55.737Z,8.50
2023-03-14T10:05:26.106Z,8.50
2023-03-14T10:07:53.264Z,8.40
2023-03-14T10:10:23.483Z,8.50
2023-03-14T10:12:59.915Z,8.50
2023-03-14T10:15:33.615Z,8.50
2023-03-14T10:18:03.280Z,8.50
2023-03-14T10:20:34.245Z,8.50
2023-03-14T10:23:13.319Z,8.40
2023-03-14T10:25:43.809Z,8.40
2023-03-14T10:28:31.640Z,8.30
2023-03-14T10:31:00.083Z,8.30
2023-03-14T10:34:03.663Z,8.20
2023-03-14T10:36:36.473Z,8.10
2023-03-14T10:39:44.825Z,8.10
2023-03-14T10:42:23.028Z,8.20
2023-03-14T10:44:57.224Z,8.20
2023-03-14T10:47:26.621Z,8.20
2023-03-14T10:49:53.951Z,8.30
2023-03-14T10:52:31.513Z,8.30
2023-03-14T10:55:13.214Z,8.50
2023-03-14T10:57:44.769Z,8.80
2023-03-14T11:00:20.669Z,8.90
2023-03-14T11:02:56.788Z,9.10
2023-03-14T11:05:43.167Z,9.20
2023-03-14T11:08:18.919Z,9.20
2023-03-14T11:10:51.875Z,9.30
2023-03-14T11:13:31.002Z,9.10
2023-03-14T11:16:10.380Z,9.00
2023-03-14T11:18:46.821Z,9.00
2023-03-14T11:21:35.705Z,9.20
2023-03-14T11:24:15.048Z,9.40
2023-03-14T11:26:50.313Z,9.50
2023-03-14T11:29:56.982Z,9.90
2023-03-14T11:32:43.159Z,10.30
2023-03-14T11:35:23.992Z,10.90
2023-03-14T11:38:18.083Z,11.00
2023-03-14T11:40:48.189Z,10.90
2023-03-14T11:43:29.718Z,10.90
2023-03-14T11:46:04.619Z,10.90
2023-03-14T11:48:52.573Z,10.70
2023-03-14T11:51:27.530Z,10.60
2023-03-14T11:54:06.795Z,10.70
2023-03-14T11:57:02.351Z,10.80
2023-03-14T11:59:48.845Z,11.00
2023-03-14T12:02:31.326Z,11.10
2023-03-14T12:05:23.477Z,11.50
2023-03-14T12:08:09.005Z,11.60
2023-03-14T12:10:42.212Z,11.60
2023-03-14T12:13:12.162Z,11.50
2023-03-14T12:15:51.467Z,11.30
2023-03-14T12:18:29.423Z,11.20
2023-03-14T12:21:01.050Z,11.30
2023-03-14T12:23:36.550Z,11.20
2023-03-14T12:26:50.068Z,11.00
2023-03-14T12:29:18.709Z,11.10
2023-03-14T12:31:50.958Z,11.20
2023-03-14T12:34:18.201Z,11.30
2023-03-14T12:36:51.605Z,11.30
2023-03-14T12:39:45.428Z,11.40
2023-03-14T12:42:55.323Z,11.30
2023-03-14T12:45:31.408Z,11.20
2023-03-14T12:48:23.344Z,11.10
2023-03-14T12:51:03.324Z,11.00
2023-03-14T12:53:43.482Z,11.10
2023-03-14T12:56:19.498Z,11.10
2023-03-14T12:59:28.507Z,11.00
2023-03-14T13:01:56.999Z,11.20
2023-03-14T13:04:40.079Z,11.30
2023-03-14T13:07:15.451Z,11.40
2023-03-14T13:09:55.922Z,11.30
2023-03-14T13:12:33.349Z,11.50
2023-03-14T13:15:02.083Z,11.50
2023-03-14T13:17:36.506Z,11.50
2023-03-14T13:20:13.977Z,11.40
2023-03-14T13:22:48.489Z,11.30
2023-03-14T13:25:15.570Z,11.00
2023-03-14T13:27:43.758Z,10.90
2023-03-14T13:30:22.683Z,10.80
2023-03-14T13:32:51.734Z,10.70
2023-03-14T13:35:22.520Z,10.70
2023-03-14T13:38:09.893Z,10.70
2023-03-14T13:40:38.606Z,10.60
2023-03-14T13:43:19.378Z,10.50
2023-03-14T13:45:49.651Z,10.50
2023-03-14T13:48:17.772Z,10.40
2023-03-14T13:51:04.564Z,10.40
2023-03-14T13:53:32.688Z,10.50
2023-03-14T13:56:04.376Z,10.50
2023-03-14T13:58:33.494Z,10.50
2023-03-14T14:01:14.161Z,10.50
2023-03-14T14:03:43.804Z,10.50
2023-03-14T14:06:33.802Z,10.50
2023-03-14T14:09:21.030Z,10.60
2023-03-14T14:12:15.004Z,10.50
2023-03-14T14:14:47.108Z,10.60
2023-03-14T14:17:19.500Z,10.60
2023-03-14T14:19:48.230Z,10.70
2023-03-14T14:22:15.522Z,10.80
2023-03-14T14:24:42.934Z,10.90
2023-03-14T14:27:19.235Z,11.10
2023-03-14T14:30:02.626Z,11.20
2023-03-14T14:32:39.955Z,11.30
2023-03-14T14:35:11.115Z,11.50
2023-03-14T14:37:45.494Z,11.60
2023-03-14T14:40:22.112Z,11.70
2023-03-14T14:42:50.876Z,11.80
2023-03-14T14:45:23.629Z,11.80
2023-03-14T14:47:50.688Z,11.80
2023-03-14T14:50:33.094Z,11.90
2023-03-14T14:53:02.363Z,11.80
2023-03-14T14:55:40.898Z,11.70
2023-03-14T14:58:35.988Z,11.80
2023-03-14T15:01:10.165Z,11.80
2023-03-14T15:03:37.548Z,11.90
2023-03-14T15:06:05.975Z,12.00
2023-03-14T15:08:33.209Z,11.90
2023-03-14T15:11:00.488Z,11.90
2023-03-14T15:13:27.834Z,11.80
2023-03-14T15:15:57.162Z,11.70
2023-03-14T15:18:28.554Z,11.60
2023-03-14T15:20:57.142Z,11.70
2023-03-14T15:23:25.260Z,11.90
2023-03-14T15:25:55.980Z,12.30
2023-03-14T15:28:26.352Z,12.60
2023-03-14T15:30:56.062Z,12.90
2023-03-14T15:33:24.429Z,13.10
2023-03-14T15:35:52.339Z,13.30
2023-03-14T15:38:24.921Z,13.30
2023-03-14T15:40:53.090Z,13.10
2023-03-14T15:43:20.589Z,12.80
2023-03-14T15:45:48.127Z,12.50
2023-03-14T15:48:22.272Z,12.30
2023-03-14T15:50:49.667Z,12.10
2023-03-14T15:53:16.903Z,11.80
2023-03-14T15:55:44.062Z,11.70
2023-03-14T15:58:21.201Z,11.60
2023-03-14T16:00:49.968Z,11.40
2023-03-14T16:03:17.920Z,11.30
2023-03-14T16:05:45.236Z,11.30
2023-03-14T16:08:12.386Z,11.40
2023-03-14T16:10:39.868Z,11.30
2023-03-14T16:13:07.238Z,11.30
2023-03-14T16:15:34.508Z,11.20
2023-03-14T16:18:06.513Z,11.20
2023-03-14T16:20:47.909Z,11.10
2023-03-14T16:23:16.679Z,11.10
2023-03-14T16:25:45.659Z,11.00
2023-03-14T16:28:13.174Z,11.00
2023-03-14T16:30:40.693Z,11.00
2023-03-14T16:33:12.432Z,11.10
2023-03-14T16:35:40.839Z,11.20
2023-03-14T16:38:08.417Z,11.10
2023-03-14T16:40:35.672Z,11.10
2023-03-14T16:43:15.668Z,11.00
2023-03-14T16:45:43.671Z,10.90
2023-03-14T16:48:10.820Z,10.90
2023-03-14T16:50:41.294Z,10.80
2023-03-14T16:53:11.512Z,10.70
2023-03-14T16:55:46.195Z,10.70
2023-03-14T16:58:14.041Z,10.60
2023-03-14T17:00:41.580Z,10.50
2023-03-14T17:03:08.749Z,10.50
2023-03-14T17:05:36.187Z,10.40
2023-03-14T17:08:03.653Z,10.40
2023-03-14T17:10:30.820Z,10.20
2023-03-14T17:12:58.616Z,10.10
2023-03-14T17:15:26.211Z,9.90
2023-03-14T17:17:53.829Z,9.70
2023-03-14T17:20:21.355Z,9.50
2023-03-14T17:22:49.148Z,9.30
2023-03-14T17:25:17.032Z,9.10
2023-03-14T17:27:46.134Z,9.00
2023-03-14T17:30:15.399Z,8.90
2023-03-14T17:32:43.400Z,8.80
2023-03-14T17:35:10.691Z,8.80
2023-03-14T17:37:38.641Z,8.60
2023-03-14T17:40:07.253Z,8.50
2023-03-14T17:42:35.568Z,8.40
2023-03-14T17:45:04.518Z,8.30
2023-03-14T17:47:32.850Z,8.20
2023-03-14T17:50:05.476Z,8.10
2023-03-14T17:52:37.353Z,8.00
2023-03-14T17:55:06.916Z,8.10
2023-03-14T17:57:38.729Z,8.20
2023-03-14T18:00:18.475Z,8.20
2023-03-14T18:02:46.892Z,8.20
2023-03-14T18:05:15.333Z,8.30
2023-03-14T18:07:43.680Z,8.30
2023-03-14T18:10:12.284Z,8.30
2023-03-14T18:12:41.240Z,8.30
2023-03-14T18:15:10.161Z,8.40
2023-03-14T18:17:42.188Z,8.50
2023-03-14T18:20:13.345Z,8.50
2023-03-14T18:22:42.910Z,8.50
2023-03-14T18:25:13.132Z,8.40
2023-03-14T18:27:43.119Z,8.40
2023-03-14T18:30:15.235Z,8.40
2023-03-14T18:32:43.082Z,8.40
2023-03-14T18:35:12.799Z,8.40
2023-03-14T18:37:40.492Z,8.40
2023-03-14T18:40:11.044Z,8.30
2023-03-14T18:42:39.379Z,8.30
2023-03-14T18:45:08.476Z,8.30
2023-03-14T18:47:37.034Z,8.30
2023-03-14T18:50:09.102Z,8.30
2023-03-14T18:52:38.638Z,8.40
2023-03-14T18:55:07.165Z,8.40
2023-03-14T18:57:36.317Z,8.30
2023-03-14T19:00:05.985Z,8.30
2023-03-14T19:02:34.371Z,8.30
2023-03-14T19:05:02.953Z,8.30
2023-03-14T19:07:37.775Z,8.30
2023-03-14T19:10:06.513Z,8.30
2023-03-14T19:12:34.695Z,8.30
2023-03-14T19:15:03.192Z,8.30
2023-03-14T19:17:31.713Z,8.30
2023-03-14T19:20:00.100Z,8.30
2023-03-14T19:22:28.294Z,8.40
2023-03-14T19:24:56.792Z,8.40
2023-03-14T19:27:28.062Z,8.40
2023-03-14T19:29:56.292Z,8.40
2023-03-14T19:32:25.810Z,8.40
2023-03-14T19:34:53.734Z,8.30
2023-03-14T19:37:23.440Z,8.10
2023-03-14T19:39:52.461Z,8.10
2023-03-14T19:42:22.201Z,8.00
2023-03-14T19:44:50.306Z,7.90
2023-03-14T19:47:19.389Z,7.80
2023-03-14T19:49:47.556Z,7.70
2023-03-14T19:52:15.918Z,7.60
2023-03-14T19:54:43.931Z,7.60
2023-03-14T19:57:14.534Z,7.60
2023-03-14T19:59:44.457Z,7.60
2023-03-14T20:02:17.895Z,7.50
2023-03-14T20:04:47.425Z,7.40
2023-03-14T20:07:17.158Z,7.40
2023-03-14T20:09:52.489Z,7.30
2023-03-14T20:12:20.392Z,7.30
2023-03-14T20:14:49.094Z,7.20
2023-03-14T20:17:17.404Z,7.10
2023-03-14T20:19:47.730Z,7.10
2023-03-14T20:22:16.220Z,7.00
2023-03-14T20:24:45.039Z,6.90
2023-03-14T20:27:14.602Z,6.80
2023-03-14T20:29:42.802Z,6.70
2023-03-14T20:32:11.887Z,6.70
2023-03-14T20:34:40.911Z,6.60
2023-03-14T20:37:09.321Z,6.70
2023-03-14T20:39:37.597Z,6.70
2023-03-14T20:42:05.786Z,6.70
2023-03-14T20:44:33.738Z,6.80
2023-03-14T20:47:03.679Z,6.70
2023-03-14T20:49:32.042Z,6.80
2023-03-14T20:51:59.966Z,6.70
2023-03-14T20:54:28.403Z,6.70
2023-03-14T20:56:58.555Z,6.60
2023-03-14T20:59:29.182Z,6.50
2023-03-14T21:01:58.420Z,6.50
2023-03-14T21:04:26.929Z,6.60
2023-03-14T21:06:55.793Z,6.50
2023-03-14T21:09:25.634Z,6.40
2023-03-14T21:11:54.397Z,6.40
2023-03-14T21:14:23.132Z,6.40
2023-03-14T21:16:57.449Z,6.40
2023-03-14T21:19:30.945Z,6.40
2023-03-14T21:22:02.830Z,6.30
2023-03-14T21:24:30.839Z,6.20
2023-03-14T21:27:00.257Z,6.20
2023-03-14T21:29:27.957Z,6.20
2023-03-14T21:31:55.333Z,6.10
2023-03-14T21:34:26.950Z,6.10
2023-03-14T21:36:55.710Z,6.10
2023-03-14T21:39:23.535Z,6.10
2023-03-14T21:41:50.632Z,6.10
2023-03-14T21:44:20.527Z,6.10
2023-03-14T21:46:48.834Z,6.00
2023-03-14T21:49:17.604Z,6.10
2023-03-14T21:51:46.257Z,6.00
2023-03-14T21:54:15.537Z,6.00
2023-03-14T21:56:44.008Z,6.00
2023-03-14T21:59:14.793Z,6.00
2023-03-14T22:01:42.749Z,6.00
2023-03-14T22:04:09.986Z,6.00
2023-03-14T22:06:37.053Z,6.00
2023-03-14T22:09:04.342Z,6.10
2023-03-14T22:11:31.394Z,6.10
2023-03-14T22:14:02.333Z,6.20
2023-03-14T22:16:29.623Z,6.20
2023-03-14T22:18:56.720Z,6.20
2023-03-14T22:21:23.849Z,6.20
2023-03-14T22:23:50.990Z,6.20
2023-03-14T22:26:18.169Z,6.20
2023-03-14T22:28:45.296Z,6.10
2023-03-14T22:31:12.403Z,6.10
2023-03-14T22:33:39.488Z,6.10
2023-03-14T22:36:07.031Z,6.10
2023-03-14T22:38:34.205Z,6.10
2023-03-14T22:41:04.269Z,6.00
2023-03-14T22:43:31.537Z,6.10
2023-03-14T22:46:03.486Z,6.10
2023-03-14T22:48:31.415Z,6.10
2023-03-14T22:50:59.174Z,6.20
2023-03-14T22:53:27.262Z,6.20
2023-03-14T22:56:06.204Z,6.20
2023-03-14T22:58:33.708Z,6.10
2023-03-14T23:01:01.198Z,6.10
2023-03-14T23:03:28.415Z,6.10
2023-03-14T23:05:55.558Z,6.10
2023-03-14T23:08:22.960Z,6.10
2023-03-14T23:10:50.169Z,6.10
2023-03-14T23:13:17.230Z,6.00
2023-03-14T23:15:44.602Z,6.00
2023-03-14T23:18:13.981Z,6.00
2023-03-14T23:20:43.245Z,6.10
2023-03-14T23:23:13.840Z,6.20
2023-03-14T23:25:52.946Z,6.20
2023-03-14T23:28:23.361Z,6.30
2023-03-14T23:30:58.104Z,6.20
2023-03-14T23:33:27.337Z,6.20
2023-03-14T23:35:55.006Z,6.20
2023-03-14T23:38:26.268Z,6.10
2023-03-14T23:40:54.246Z,6.20
2023-03-14T23:43:21.762Z,6.20
2023-03-14T23:45:56.193Z,6.10
2023-03-14T23:48:26.182Z,6.10
2023-03-14T23:51:00.255Z,6.20
2023-03-14T23:53:29.738Z,6.20
2023-03-14T23:55:57.857Z,6.20
2023-03-14T23:58:25.577Z,6.20
